createdAt,value
2023-05-23T00:00:23.931Z,46.50
2023-05-23T00:01:27.012Z,46.41
2023-05-23T00:02:29.335Z,46.48
2023-05-23T00:03:31.852Z,46.48
2023-05-23T00:04:35.380Z,46.46
2023-05-23T00:05:37.792Z,46.30
2023-05-23T00:06:40.890Z,46.26
2023-05-23T00:09:03.066Z,45.96
2023-05-23T00:10:07.664Z,46.07
2023-05-23T00:11:10.416Z,45.95
2023-05-23T00:12:12.530Z,45.98
2023-05-23T00:13:17.286Z,45.81
2023-05-23T00:14:19.647Z,45.74
2023-05-23T00:15:22.044Z,45.78
2023-05-23T00:16:26.428Z,45.68
2023-05-23T00:17:28.742Z,45.78
2023-05-23T00:18:31.297Z,45.77
2023-05-23T00:19:34.619Z,45.81
2023-05-23T00:20:38.697Z,45.79
2023-05-23T00:22:52.825Z,45.90
2023-05-23T00:23:55.164Z,45.87
2023-05-23T00:24:57.877Z,45.81
2023-05-23T00:26:00.068Z,45.72
2023-05-23T00:27:02.696Z,45.79
2023-05-23T00:28:05.634Z,45.80
2023-05-23T00:29:09.023Z,45.83
2023-05-23T00:30:12.156Z,45.88
2023-05-23T00:31:16.754Z,45.97
2023-05-23T00:33:32.500Z,46.01
2023-05-23T00:34:35.432Z,46.00
2023-05-23T00:36:51.804Z,46.00
2023-05-23T00:37:55.380Z,46.19
2023-05-23T00:38:57.862Z,46.18
2023-05-23T00:40:00.274Z,46.33
2023-05-23T00:41:06.717Z,46.32
2023-05-23T00:42:09.088Z,46.50
2023-05-23T00:43:11.469Z,46.66
2023-05-23T00:44:15.969Z,46.60
2023-05-23T00:45:18.310Z,46.62
2023-05-23T00:46:20.905Z,46.62
2023-05-23T00:47:23.848Z,46.75
2023-05-23T00:48:27.640Z,46.60
2023-05-23T00:49:31.892Z,46.54
2023-05-23T00:50:35.024Z,46.47
2023-05-23T00:51:39.765Z,46.34
2023-05-23T00:52:46.168Z,46.39
2023-05-23T00:53:48.901Z,46.19
2023-05-23T00:54:52.671Z,46.25
2023-05-23T00:55:57.382Z,46.17
2023-05-23T00:56:59.821Z,46.39
2023-05-23T00:58:02.324Z,46.34
2023-05-23T00:59:05.312Z,46.26
2023-05-23T01:00:14.888Z,46.22
2023-05-23T01:01:17.948Z,46.17
2023-05-23T01:02:20.687Z,46.41
2023-05-23T01:03:23.074Z,46.39
2023-05-23T01:04:25.743Z,46.35
2023-05-23T01:05:28.183Z,46.31
2023-05-23T01:06:31.648Z,46.32
2023-05-23T01:07:34.602Z,46.17
2023-05-23T01:09:53.719Z,46.23
2023-05-23T01:11:00.836Z,46.21
2023-05-23T01:12:35.757Z,46.23
2023-05-23T01:13:44.612Z,46.39
2023-05-23T01:15:07.436Z,46.27
2023-05-23T01:16:34.437Z,46.39
2023-05-23T01:18:07.271Z,46.31
2023-05-23T01:21:41.339Z,46.51
2023-05-23T01:22:59.374Z,46.44
2023-05-23T01:24:14.116Z,46.45
2023-05-23T01:25:36.981Z,46.43
2023-05-23T01:27:07.053Z,46.59
2023-05-23T01:28:12.271Z,46.63
2023-05-23T01:29:18.148Z,46.62
2023-05-23T01:30:20.903Z,46.70
2023-05-23T01:31:24.704Z,46.68
2023-05-23T01:32:28.587Z,46.58
2023-05-23T01:33:32.514Z,46.70
2023-05-23T01:34:36.405Z,46.81
2023-05-23T01:35:39.736Z,46.81
2023-05-23T01:36:44.162Z,46.74
2023-05-23T01:37:46.557Z,46.74
2023-05-23T01:38:48.816Z,46.76
2023-05-23T01:39:51.788Z,46.71
2023-05-23T01:40:54.605Z,46.81
2023-05-23T01:41:57.035Z,46.99
2023-05-23T01:42:59.324Z,46.96
2023-05-23T01:44:04.460Z,46.96
2023-05-23T01:45:08.636Z,46.88
2023-05-23T01:46:12.951Z,46.91
2023-05-23T01:47:15.774Z,46.88
2023-05-23T01:48:18.716Z,47.01
2023-05-23T01:49:25.204Z,46.96
2023-05-23T01:50:28.369Z,46.98
2023-05-23T01:51:31.108Z,47.08
2023-05-23T01:52:33.774Z,47.00
2023-05-23T01:53:37.085Z,47.32
2023-05-23T01:54:40.055Z,47.22
2023-05-23T01:55:42.623Z,47.25
2023-05-23T01:56:45.256Z,47.26
2023-05-23T01:57:50.253Z,47.34
2023-05-23T01:58:52.626Z,47.26
2023-05-23T01:59:56.763Z,47.30
2023-05-23T02:00:59.842Z,47.35
2023-05-23T02:02:02.543Z,47.45
2023-05-23T02:03:05.241Z,47.54
2023-05-23T02:04:08.939Z,47.42
2023-05-23T02:05:11.230Z,47.27
2023-05-23T02:06:15.382Z,47.38
2023-05-23T02:07:17.690Z,47.31
2023-05-23T02:08:21.971Z,47.39
2023-05-23T02:09:24.293Z,47.34
2023-05-23T02:10:27.002Z,47.42
2023-05-23T02:11:29.348Z,47.51
2023-05-23T02:12:31.677Z,47.47
2023-05-23T02:13:34.866Z,47.54
2023-05-23T02:14:38.281Z,47.58
2023-05-23T02:15:40.820Z,47.65
2023-05-23T02:16:44.213Z,47.72
2023-05-23T02:17:46.483Z,47.80
2023-05-23T02:18:49.095Z,47.72
2023-05-23T02:19:51.622Z,47.76
2023-05-23T02:20:53.929Z,47.84
2023-05-23T02:21:56.229Z,47.68
2023-05-23T02:23:00.143Z,47.79
2023-05-23T02:24:03.040Z,47.65
2023-05-23T02:25:07.228Z,47.56
2023-05-23T02:26:10.072Z,47.72
2023-05-23T02:27:12.514Z,47.82
2023-05-23T02:28:14.955Z,47.74
2023-05-23T02:29:17.764Z,47.56
2023-05-23T02:30:21.351Z,48.08
2023-05-23T02:31:25.763Z,49.03
2023-05-23T02:32:28.176Z,49.73
2023-05-23T02:33:32.088Z,50.04
2023-05-23T02:34:34.359Z,50.17
2023-05-23T02:35:36.742Z,50.31
2023-05-23T02:36:39.158Z,51.04
2023-05-23T02:37:41.575Z,51.18
2023-05-23T02:38:43.827Z,50.55
2023-05-23T02:39:47.944Z,50.78
2023-05-23T02:40:50.609Z,50.44
2023-05-23T02:41:53.169Z,50.40
2023-05-23T02:42:55.441Z,50.32
2023-05-23T02:44:00.570Z,51.80
2023-05-23T02:45:03.424Z,50.90
2023-05-23T02:46:06.445Z,50.78
2023-05-23T02:47:09.434Z,50.73
2023-05-23T02:48:11.999Z,50.47
2023-05-23T02:49:14.992Z,50.84
2023-05-23T02:50:18.063Z,51.20
2023-05-23T02:51:20.397Z,50.65
2023-05-23T02:52:23.890Z,50.96
2023-05-23T02:53:26.137Z,50.39
2023-05-23T02:54:29.942Z,50.34
2023-05-23T02:55:32.482Z,50.80
2023-05-23T02:56:35.001Z,50.42
2023-05-23T02:57:37.373Z,49.95
2023-05-23T02:58:39.721Z,49.94
2023-05-23T02:59:42.088Z,49.94
2023-05-23T03:00:44.401Z,50.00
2023-05-23T03:01:46.731Z,50.18
2023-05-23T03:02:49.369Z,50.07
2023-05-23T03:03:51.686Z,50.19
2023-05-23T03:04:54.670Z,50.29
2023-05-23T03:05:57.865Z,50.50
2023-05-23T03:07:00.366Z,50.32
2023-05-23T03:08:02.908Z,50.30
2023-05-23T03:09:05.265Z,50.17
2023-05-23T03:10:09.234Z,50.55
2023-05-23T03:11:11.538Z,53.04
2023-05-23T03:12:13.914Z,51.32
2023-05-23T03:13:17.161Z,50.60
2023-05-23T03:14:20.411Z,50.03
2023-05-23T03:15:24.490Z,49.40
2023-05-23T03:16:27.303Z,48.98
2023-05-23T03:17:30.171Z,48.80
2023-05-23T03:18:33.069Z,48.50
2023-05-23T03:19:36.778Z,48.39
2023-05-23T03:20:39.511Z,48.21
2023-05-23T03:21:41.943Z,48.21
2023-05-23T03:22:44.553Z,48.13
2023-05-23T03:23:46.968Z,48.18
2023-05-23T03:24:49.302Z,48.06
2023-05-23T03:25:51.687Z,48.03
2023-05-23T03:26:54.173Z,47.93
2023-05-23T03:27:56.890Z,47.98
2023-05-23T03:29:00.780Z,47.92
2023-05-23T03:30:04.551Z,48.03
2023-05-23T03:31:07.102Z,47.99
2023-05-23T03:32:09.691Z,48.01
2023-05-23T03:33:12.354Z,47.96
2023-05-23T03:34:14.560Z,48.01
2023-05-23T03:35:17.078Z,47.98
2023-05-23T03:36:20.389Z,47.96
2023-05-23T03:37:23.211Z,47.89
2023-05-23T03:38:27.945Z,47.86
2023-05-23T03:39:30.533Z,47.94
2023-05-23T03:40:35.807Z,48.10
2023-05-23T03:41:38.116Z,48.05
2023-05-23T03:42:40.826Z,47.91
2023-05-23T03:43:44.531Z,47.95
2023-05-23T03:44:47.630Z,48.03
2023-05-23T03:45:50.171Z,48.07
2023-05-23T03:46:53.337Z,48.17
2023-05-23T03:47:56.666Z,48.21
2023-05-23T03:48:59.587Z,48.26
2023-05-23T03:50:02.001Z,48.24
2023-05-23T03:51:05.709Z,48.26
2023-05-23T03:52:08.620Z,48.34
2023-05-23T03:53:11.403Z,48.29
2023-05-23T03:54:13.959Z,48.35
2023-05-23T03:55:16.328Z,48.33
2023-05-23T03:56:19.314Z,48.48
2023-05-23T03:57:22.020Z,48.44
2023-05-23T03:58:25.726Z,48.62
2023-05-23T03:59:29.972Z,48.55
2023-05-23T04:00:34.283Z,48.63
2023-05-23T04:01:38.890Z,48.69
2023-05-23T04:02:41.398Z,48.92
2023-05-23T04:03:43.794Z,49.04
2023-05-23T04:04:46.096Z,49.05
2023-05-23T04:05:48.230Z,49.19
2023-05-23T04:06:51.152Z,49.12
2023-05-23T04:07:53.395Z,49.04
2023-05-23T04:08:59.022Z,49.03
2023-05-23T04:10:01.941Z,48.89
2023-05-23T04:11:06.081Z,48.77
2023-05-23T04:12:10.391Z,48.83
2023-05-23T04:13:13.530Z,48.78
2023-05-23T04:14:15.851Z,48.76
2023-05-23T04:15:18.172Z,48.68
2023-05-23T04:16:28.450Z,48.57
2023-05-23T04:17:31.616Z,48.60
2023-05-23T04:18:34.178Z,48.45
2023-05-23T04:19:38.555Z,48.59
2023-05-23T04:20:41.665Z,48.55
2023-05-23T04:21:44.330Z,48.52
2023-05-23T04:22:50.323Z,48.50
2023-05-23T04:23:54.064Z,48.39
2023-05-23T04:24:59.130Z,48.41
2023-05-23T04:26:04.036Z,48.45
2023-05-23T04:27:08.860Z,48.51
2023-05-23T04:28:12.295Z,48.54
2023-05-23T04:29:14.653Z,48.38
2023-05-23T04:30:17.884Z,48.43
2023-05-23T04:31:21.984Z,48.34
2023-05-23T04:32:24.691Z,48.45
2023-05-23T04:33:26.983Z,48.43
2023-05-23T04:34:30.184Z,48.42
2023-05-23T04:35:33.459Z,48.52
2023-05-23T04:36:35.923Z,48.52
2023-05-23T04:37:38.394Z,48.41
2023-05-23T04:38:41.650Z,48.38
2023-05-23T04:39:44.452Z,48.25
2023-05-23T04:40:48.620Z,48.51
2023-05-23T04:42:03.046Z,48.37
2023-05-23T04:44:30.198Z,48.43
2023-05-23T04:45:36.937Z,48.44
2023-05-23T04:46:41.222Z,48.43
2023-05-23T04:47:51.560Z,48.33
2023-05-23T04:48:55.695Z,48.51
2023-05-23T04:49:58.484Z,48.38
2023-05-23T04:51:01.319Z,48.46
2023-05-23T04:52:04.773Z,48.39
2023-05-23T04:53:08.287Z,48.42
2023-05-23T04:54:11.562Z,48.43
2023-05-23T04:55:14.092Z,48.48
2023-05-23T04:56:18.896Z,48.60
2023-05-23T04:57:23.059Z,48.66
2023-05-23T04:58:25.828Z,48.69
2023-05-23T04:59:29.970Z,48.66
2023-05-23T05:00:32.380Z,48.59
2023-05-23T05:01:35.554Z,48.84
2023-05-23T05:02:40.707Z,48.77
2023-05-23T05:03:44.261Z,48.75
2023-05-23T05:04:46.539Z,49.04
2023-05-23T05:05:48.871Z,49.01
2023-05-23T05:06:52.424Z,49.22
2023-05-23T05:07:55.046Z,49.27
2023-05-23T05:08:57.293Z,49.20
2023-05-23T05:10:01.045Z,49.27
2023-05-23T05:11:04.896Z,49.42
2023-05-23T05:12:08.816Z,49.25
2023-05-23T05:13:10.978Z,49.02
2023-05-23T05:14:17.613Z,49.00
2023-05-23T05:15:19.746Z,48.62
2023-05-23T05:16:24.718Z,48.33
2023-05-23T05:17:28.106Z,48.17
2023-05-23T05:18:38.656Z,48.03
2023-05-23T05:19:40.992Z,47.57
2023-05-23T05:20:43.880Z,47.47
2023-05-23T05:21:46.270Z,47.39
2023-05-23T05:24:08.023Z,47.28
2023-05-23T05:25:10.900Z,47.07
2023-05-23T05:26:14.245Z,46.76
2023-05-23T05:27:17.701Z,45.96
2023-05-23T05:28:20.118Z,45.79
2023-05-23T05:29:24.213Z,45.15
2023-05-23T05:30:27.754Z,44.86
2023-05-23T05:31:32.174Z,44.55
2023-05-23T05:32:35.536Z,43.76
2023-05-23T05:33:38.408Z,43.21
2023-05-23T05:34:42.627Z,42.74
2023-05-23T05:35:45.435Z,42.69
2023-05-23T05:36:50.295Z,42.54
2023-05-23T05:37:54.050Z,42.46
2023-05-23T05:38:56.419Z,42.33
2023-05-23T05:39:58.801Z,42.10
2023-05-23T05:41:01.207Z,41.92
2023-05-23T05:42:06.304Z,41.81
2023-05-23T05:43:09.223Z,42.07
2023-05-23T05:44:11.307Z,41.81
2023-05-23T05:45:13.738Z,41.52
2023-05-23T05:46:18.357Z,41.15
2023-05-23T05:47:20.762Z,41.36
2023-05-23T05:48:24.059Z,41.18
2023-05-23T05:49:28.339Z,41.22
2023-05-23T05:50:32.432Z,40.72
2023-05-23T05:51:35.650Z,40.61
2023-05-23T05:52:38.788Z,40.18
2023-05-23T05:53:43.084Z,39.88
2023-05-23T05:54:45.976Z,39.77
2023-05-23T05:55:48.350Z,39.72
2023-05-23T05:56:52.378Z,39.32
2023-05-23T05:57:54.818Z,39.11
2023-05-23T05:58:58.008Z,39.42
2023-05-23T06:00:00.317Z,38.99
2023-05-23T06:01:03.213Z,38.77
2023-05-23T06:02:06.435Z,38.31
2023-05-23T06:03:08.856Z,38.01
2023-05-23T06:04:13.432Z,37.65
2023-05-23T06:05:16.204Z,37.49
2023-05-23T06:06:18.927Z,37.28
2023-05-23T06:07:21.326Z,37.51
2023-05-23T06:08:23.749Z,37.69
2023-05-23T06:09:26.164Z,37.83
2023-05-23T06:10:29.239Z,37.84
2023-05-23T06:11:32.479Z,37.95
2023-05-23T06:12:35.403Z,38.07
2023-05-23T06:13:38.382Z,38.03
2023-05-23T06:14:40.897Z,38.06
2023-05-23T06:15:44.209Z,38.08
2023-05-23T06:16:46.986Z,38.26
2023-05-23T06:17:49.256Z,38.66
2023-05-23T06:18:52.171Z,38.83
2023-05-23T06:19:55.692Z,38.86
2023-05-23T06:22:15.429Z,39.15
2023-05-23T06:23:18.656Z,39.39
2023-05-23T06:24:21.990Z,39.31
2023-05-23T06:25:24.601Z,39.35
2023-05-23T06:26:33.221Z,39.54
2023-05-23T06:27:35.582Z,39.68
2023-05-23T06:28:38.717Z,39.90
2023-05-23T06:29:42.531Z,39.88
2023-05-23T06:30:44.849Z,39.92
2023-05-23T06:31:47.291Z,39.98
2023-05-23T06:32:49.493Z,40.33
2023-05-23T06:33:53.716Z,40.54
2023-05-23T06:34:56.127Z,40.55
2023-05-23T06:35:58.651Z,40.46
2023-05-23T06:37:01.523Z,40.49
2023-05-23T06:38:03.884Z,40.51
2023-05-23T06:39:06.356Z,40.72
2023-05-23T06:40:11.482Z,40.88
2023-05-23T06:41:14.048Z,40.97
2023-05-23T06:42:16.740Z,41.02
2023-05-23T06:43:26.643Z,41.26
2023-05-23T06:44:30.887Z,41.25
2023-05-23T06:45:34.118Z,41.31
2023-05-23T06:46:39.742Z,41.51
2023-05-23T06:47:41.760Z,41.87
2023-05-23T06:48:43.949Z,41.92
2023-05-23T06:49:46.809Z,41.90
2023-05-23T06:50:49.798Z,42.30
2023-05-23T06:51:52.799Z,42.57
2023-05-23T06:52:55.553Z,42.74
2023-05-23T06:53:58.432Z,42.69
2023-05-23T06:55:00.748Z,42.59
2023-05-23T06:56:03.191Z,42.45
2023-05-23T06:57:06.993Z,42.35
2023-05-23T06:58:10.322Z,42.74
2023-05-23T06:59:12.792Z,42.79
2023-05-23T07:00:17.162Z,42.73
2023-05-23T07:01:21.490Z,42.81
2023-05-23T07:02:25.189Z,42.53
2023-05-23T07:03:27.921Z,41.99
2023-05-23T07:04:33.184Z,42.30
2023-05-23T07:05:40.111Z,41.91
2023-05-23T07:06:41.616Z,41.59
2023-05-23T07:07:44.006Z,41.72
2023-05-23T07:08:46.708Z,41.81
2023-05-23T07:09:50.763Z,41.32
2023-05-23T07:10:54.017Z,41.53
2023-05-23T07:11:58.111Z,41.47
2023-05-23T07:13:01.208Z,41.42
2023-05-23T07:14:03.658Z,41.26
2023-05-23T07:15:11.616Z,41.13
2023-05-23T07:16:16.582Z,41.14
2023-05-23T07:17:20.828Z,40.63
2023-05-23T07:18:23.974Z,39.80
2023-05-23T07:19:27.080Z,39.71
2023-05-23T07:20:33.222Z,39.63
2023-05-23T07:21:37.460Z,39.43
2023-05-23T07:22:40.809Z,39.57
2023-05-23T07:23:43.228Z,39.63
2023-05-23T07:24:46.197Z,40.08
2023-05-23T07:26:01.209Z,40.04
2023-05-23T07:27:00.649Z,40.20
2023-05-23T07:28:02.954Z,39.45
2023-05-23T07:29:05.522Z,39.82
2023-05-23T07:30:08.951Z,39.84
2023-05-23T07:31:12.241Z,40.52
2023-05-23T07:32:15.586Z,39.99
2023-05-23T07:33:18.686Z,39.93
2023-05-23T07:34:22.077Z,39.43
2023-05-23T07:35:29.147Z,39.03
2023-05-23T07:36:32.360Z,38.32
2023-05-23T07:37:36.061Z,38.63
2023-05-23T07:38:38.563Z,38.19
2023-05-23T07:39:41.642Z,38.22
2023-05-23T07:40:46.719Z,37.72
2023-05-23T07:41:48.853Z,37.75
2023-05-23T07:42:53.041Z,37.61
2023-05-23T07:43:55.159Z,37.46
2023-05-23T07:44:58.020Z,36.60
2023-05-23T07:46:00.706Z,36.97
2023-05-23T07:47:03.833Z,37.17
2023-05-23T07:49:45.227Z,36.87
2023-05-23T07:50:47.700Z,37.08
2023-05-23T07:51:50.004Z,36.39
2023-05-23T07:52:52.944Z,36.70
2023-05-23T07:53:57.209Z,36.77
2023-05-23T07:54:59.638Z,37.32
2023-05-23T07:56:04.267Z,36.96
2023-05-23T07:57:08.729Z,36.07
2023-05-23T07:58:12.738Z,36.53
2023-05-23T07:59:19.040Z,36.42
2023-05-23T08:00:22.843Z,37.04
2023-05-23T08:01:27.952Z,35.97
2023-05-23T08:02:35.197Z,36.22
2023-05-23T08:03:37.665Z,36.65
2023-05-23T08:04:41.827Z,36.14
2023-05-23T08:05:45.679Z,35.77
2023-05-23T08:07:00.787Z,36.25
2023-05-23T08:07:56.290Z,36.19
2023-05-23T08:09:02.210Z,36.35
2023-05-23T08:10:07.015Z,36.27
2023-05-23T08:11:09.491Z,36.47
2023-05-23T08:12:13.716Z,35.73
2023-05-23T08:13:17.798Z,36.05
2023-05-23T08:14:24.700Z,35.50
2023-05-23T08:15:29.538Z,35.79
2023-05-23T08:16:34.797Z,36.54
2023-05-23T08:17:39.189Z,35.70
2023-05-23T08:18:41.508Z,36.32
2023-05-23T08:19:43.972Z,36.56
2023-05-23T08:20:48.930Z,36.28
2023-05-23T08:21:54.310Z,36.59
2023-05-23T08:23:02.338Z,36.80
2023-05-23T08:24:14.100Z,36.58
2023-05-23T08:25:17.628Z,36.65
2023-05-23T08:26:20.154Z,36.25
2023-05-23T08:27:23.193Z,36.53
2023-05-23T08:28:27.394Z,36.56
2023-05-23T08:29:30.546Z,36.21
2023-05-23T08:31:47.900Z,35.86
2023-05-23T08:32:52.451Z,36.15
2023-05-23T08:33:59.662Z,36.19
2023-05-23T08:35:05.136Z,34.95
2023-05-23T08:36:14.827Z,36.04
2023-05-23T08:37:20.885Z,35.82
2023-05-23T08:38:24.511Z,35.32
2023-05-23T08:39:30.860Z,35.71
2023-05-23T08:40:52.767Z,36.00
2023-05-23T08:41:56.065Z,36.09
2023-05-23T08:43:00.739Z,35.94
2023-05-23T08:44:06.780Z,35.51
2023-05-23T08:45:12.055Z,35.33
2023-05-23T08:46:18.202Z,35.71
2023-05-23T08:47:22.480Z,34.37
2023-05-23T08:48:28.392Z,34.56
2023-05-23T08:49:32.060Z,34.31
2023-05-23T08:50:37.110Z,35.00
2023-05-23T08:51:42.295Z,34.99
2023-05-23T08:52:57.885Z,35.16
2023-05-23T08:54:01.142Z,34.74
2023-05-23T08:56:23.753Z,34.98
2023-05-23T08:57:28.427Z,34.99
2023-05-23T08:58:34.586Z,34.93
2023-05-23T08:59:38.601Z,35.35
2023-05-23T09:00:43.075Z,35.45
2023-05-23T09:01:47.763Z,35.52
2023-05-23T09:02:50.210Z,35.24
2023-05-23T09:03:57.951Z,35.52
2023-05-23T09:05:11.809Z,35.11
2023-05-23T09:06:15.673Z,34.83
2023-05-23T09:07:18.955Z,35.36
2023-05-23T09:08:22.183Z,35.25
2023-05-23T09:09:26.460Z,34.69
2023-05-23T09:10:30.852Z,34.78
2023-05-23T09:11:36.238Z,35.11
2023-05-23T09:12:41.526Z,34.88
2023-05-23T09:13:45.639Z,34.78
2023-05-23T09:14:51.547Z,34.69
2023-05-23T09:17:38.932Z,34.94
2023-05-23T09:18:44.509Z,34.82
2023-05-23T09:19:48.708Z,34.80
2023-05-23T09:21:05.652Z,34.83
2023-05-23T09:22:09.410Z,34.37
2023-05-23T09:23:15.662Z,34.50
2023-05-23T09:24:20.150Z,34.41
2023-05-23T09:25:22.647Z,34.04
2023-05-23T09:26:27.102Z,33.90
2023-05-23T09:27:31.332Z,34.37
2023-05-23T09:28:36.782Z,34.10
2023-05-23T09:29:45.393Z,34.15
2023-05-23T09:30:43.883Z,34.57
2023-05-23T09:31:49.328Z,34.75
2023-05-23T09:33:02.900Z,34.57
2023-05-23T09:34:06.139Z,34.50
2023-05-23T09:35:12.077Z,34.73
2023-05-23T09:36:17.040Z,34.67
2023-05-23T09:37:19.885Z,35.00
2023-05-23T09:38:22.662Z,35.15
2023-05-23T09:39:25.353Z,34.88
2023-05-23T09:40:36.028Z,34.96
2023-05-23T09:41:50.860Z,35.23
2023-05-23T09:44:11.345Z,35.52
2023-05-23T09:45:15.900Z,35.73
2023-05-23T09:46:22.434Z,36.02
2023-05-23T09:47:25.740Z,36.13
2023-05-23T09:48:29.803Z,36.28
2023-05-23T09:49:32.527Z,36.31
2023-05-23T09:50:35.565Z,36.37
2023-05-23T09:51:38.216Z,36.30
2023-05-23T09:52:40.554Z,36.27
2023-05-23T09:53:43.406Z,36.37
2023-05-23T09:54:46.720Z,36.15
2023-05-23T09:55:52.409Z,36.19
2023-05-23T09:56:55.604Z,36.18
2023-05-23T09:57:58.902Z,36.40
2023-05-23T09:59:02.851Z,36.30
2023-05-23T10:00:07.527Z,36.34
2023-05-23T10:01:13.684Z,36.45
2023-05-23T10:02:18.682Z,36.27
2023-05-23T10:04:51.614Z,36.27
2023-05-23T10:07:21.095Z,36.63
2023-05-23T10:09:58.888Z,36.72
2023-05-23T10:11:18.103Z,36.62
2023-05-23T10:12:38.449Z,36.71
2023-05-23T10:13:45.317Z,36.83
2023-05-23T10:14:52.693Z,37.17
2023-05-23T10:17:20.306Z,37.42
2023-05-23T10:18:29.571Z,37.32
2023-05-23T10:19:54.190Z,37.47
2023-05-23T10:21:00.602Z,37.76
2023-05-23T10:22:06.983Z,37.93
2023-05-23T10:23:11.838Z,38.21
2023-05-23T10:24:16.182Z,38.28
2023-05-23T10:25:19.118Z,38.24
2023-05-23T10:26:28.031Z,38.30
2023-05-23T10:27:32.698Z,37.95
2023-05-23T10:28:35.914Z,37.96
2023-05-23T10:29:38.498Z,37.64
2023-05-23T10:30:41.663Z,37.89
2023-05-23T10:31:45.361Z,37.82
2023-05-23T10:32:48.377Z,37.45
2023-05-23T10:34:00.104Z,37.57
2023-05-23T10:35:27.474Z,37.73
2023-05-23T10:38:09.115Z,37.43
2023-05-23T10:39:17.905Z,37.32
2023-05-23T10:40:33.043Z,37.33
2023-05-23T10:41:52.151Z,37.28
2023-05-23T10:43:17.772Z,37.35
2023-05-23T10:44:26.881Z,37.37
2023-05-23T10:45:30.983Z,37.64
2023-05-23T10:46:58.027Z,37.56
2023-05-23T10:48:03.794Z,37.29
2023-05-23T10:49:08.377Z,37.39
2023-05-23T10:50:17.482Z,37.71
2023-05-23T10:51:23.942Z,37.53
2023-05-23T10:52:27.357Z,37.58
2023-05-23T10:54:55.873Z,37.27
2023-05-23T10:55:58.082Z,37.20
2023-05-23T10:57:05.058Z,37.40
2023-05-23T10:58:19.416Z,37.43
2023-05-23T10:59:21.720Z,37.59
2023-05-23T11:00:26.704Z,37.49
2023-05-23T11:01:30.102Z,37.53
2023-05-23T11:02:32.506Z,37.63
2023-05-23T11:03:40.798Z,37.61
2023-05-23T11:04:45.007Z,37.85
2023-05-23T11:05:53.484Z,38.02
2023-05-23T11:06:56.360Z,37.48
2023-05-23T11:09:26.156Z,37.20
2023-05-23T11:10:31.065Z,36.87
2023-05-23T11:13:16.821Z,36.98
2023-05-23T11:14:21.153Z,37.11
2023-05-23T11:15:23.589Z,37.03
2023-05-23T11:17:44.236Z,37.05
2023-05-23T11:18:46.615Z,37.49
2023-05-23T11:20:08.516Z,37.59
2023-05-23T11:21:11.124Z,37.13
2023-05-23T11:22:13.337Z,37.21
2023-05-23T11:23:15.444Z,37.07
2023-05-23T11:24:17.741Z,37.28
2023-05-23T11:25:21.090Z,36.71
2023-05-23T11:27:42.290Z,36.81
2023-05-23T11:28:58.684Z,36.80
2023-05-23T11:30:04.511Z,36.98
2023-05-23T11:31:07.495Z,36.55
2023-05-23T11:32:16.063Z,36.47
2023-05-23T11:33:16.657Z,36.62
2023-05-23T11:34:21.186Z,36.53
2023-05-23T11:35:23.864Z,36.82
2023-05-23T11:36:27.416Z,36.68
2023-05-23T11:37:30.794Z,36.51
2023-05-23T11:38:33.680Z,36.29
2023-05-23T11:39:36.154Z,36.46
2023-05-23T11:40:41.821Z,36.39
2023-05-23T11:42:01.670Z,36.70
2023-05-23T11:44:18.631Z,36.79
2023-05-23T11:45:21.812Z,37.00
2023-05-23T11:46:24.224Z,36.85
2023-05-23T11:47:26.312Z,36.73
2023-05-23T11:48:28.994Z,35.86
2023-05-23T11:49:43.099Z,36.27
2023-05-23T11:50:51.787Z,36.07
2023-05-23T11:52:02.093Z,36.11
2023-05-23T11:53:09.543Z,36.27
2023-05-23T11:54:11.930Z,36.47
2023-05-23T11:55:16.853Z,36.32
2023-05-23T11:56:19.416Z,36.42
2023-05-23T11:57:23.366Z,36.52
2023-05-23T11:58:38.500Z,36.65
2023-05-23T11:59:44.204Z,36.78
2023-05-23T12:00:48.686Z,36.92
2023-05-23T12:02:12.643Z,37.13
2023-05-23T12:03:15.654Z,37.27
2023-05-23T12:04:18.292Z,37.30
2023-05-23T12:05:20.865Z,37.06
2023-05-23T12:06:25.285Z,37.01
2023-05-23T12:07:29.090Z,37.06
2023-05-23T12:08:33.052Z,36.88
2023-05-23T12:09:44.127Z,36.63
2023-05-23T12:10:57.688Z,36.71
2023-05-23T12:12:00.166Z,36.61
2023-05-23T12:13:04.851Z,36.44
2023-05-23T12:14:18.084Z,36.44
2023-05-23T12:15:25.195Z,36.69
2023-05-23T12:16:28.571Z,36.55
2023-05-23T12:17:33.807Z,36.67
2023-05-23T12:18:37.468Z,36.93
2023-05-23T12:19:43.743Z,36.60
2023-05-23T12:20:50.756Z,36.37
2023-05-23T12:21:53.127Z,36.56
2023-05-23T12:22:58.406Z,36.57
2023-05-23T12:24:04.326Z,36.58
2023-05-23T12:26:24.825Z,37.05
2023-05-23T12:27:32.895Z,37.21
2023-05-23T12:28:40.557Z,36.90
2023-05-23T12:29:44.691Z,37.10
2023-05-23T12:30:47.307Z,37.13
2023-05-23T12:31:49.915Z,37.23
2023-05-23T12:34:23.564Z,37.57
2023-05-23T12:35:30.643Z,37.54
2023-05-23T12:36:41.947Z,37.04
2023-05-23T12:37:42.128Z,36.76
2023-05-23T12:38:48.077Z,36.72
2023-05-23T12:39:51.128Z,36.60
2023-05-23T12:41:12.552Z,36.75
2023-05-23T12:42:15.272Z,36.77
2023-05-23T12:43:20.254Z,36.92
2023-05-23T12:44:22.976Z,36.51
2023-05-23T12:45:33.729Z,36.50
2023-05-23T12:46:36.093Z,36.18
2023-05-23T12:47:38.282Z,36.47
2023-05-23T12:48:40.544Z,36.58
2023-05-23T12:49:43.644Z,36.46
2023-05-23T12:50:46.179Z,36.33
2023-05-23T12:51:48.570Z,36.29
2023-05-23T12:52:50.958Z,36.47
2023-05-23T12:53:54.603Z,35.79
2023-05-23T12:56:14.540Z,36.07
2023-05-23T12:57:16.880Z,36.51
2023-05-23T12:58:20.709Z,36.06
2023-05-23T12:59:23.376Z,35.93
2023-05-23T13:00:26.195Z,35.77
2023-05-23T13:01:29.142Z,35.86
2023-05-23T13:02:32.901Z,35.90
2023-05-23T13:03:35.290Z,35.92
2023-05-23T13:04:37.552Z,36.15
2023-05-23T13:05:42.627Z,36.51
2023-05-23T13:06:45.186Z,36.24
2023-05-23T13:07:47.442Z,36.24
2023-05-23T13:08:50.012Z,36.38
2023-05-23T13:09:52.665Z,36.85
2023-05-23T13:10:55.150Z,37.21
2023-05-23T13:11:58.002Z,37.90
2023-05-23T13:13:00.280Z,38.15
2023-05-23T13:14:05.267Z,39.10
2023-05-23T13:15:09.096Z,40.04
2023-05-23T13:16:15.752Z,40.43
2023-05-23T13:17:19.523Z,42.94
2023-05-23T13:18:22.041Z,43.72
2023-05-23T13:19:27.480Z,44.17
2023-05-23T13:20:30.517Z,44.33
2023-05-23T13:21:33.267Z,44.45
2023-05-23T13:23:44.986Z,44.80
2023-05-23T13:26:07.518Z,45.11
2023-05-23T13:27:10.590Z,45.13
2023-05-23T13:28:12.982Z,45.20
2023-05-23T13:29:15.623Z,45.18
2023-05-23T13:30:17.999Z,45.26
2023-05-23T13:31:20.687Z,45.29
2023-05-23T13:32:23.500Z,45.37
2023-05-23T13:33:26.187Z,45.34
2023-05-23T13:34:28.362Z,45.42
2023-05-23T13:35:32.247Z,45.43
2023-05-23T13:36:35.337Z,45.50
2023-05-23T13:37:37.685Z,45.57
2023-05-23T13:38:39.973Z,45.67
2023-05-23T13:39:43.454Z,45.70
2023-05-23T13:40:51.074Z,45.71
2023-05-23T13:41:53.517Z,46.00
2023-05-23T13:42:58.317Z,45.93
2023-05-23T13:44:00.656Z,46.13
2023-05-23T13:45:03.247Z,46.14
2023-05-23T13:46:06.077Z,46.26
2023-05-23T13:47:13.636Z,46.43
2023-05-23T13:48:16.306Z,46.48
2023-05-23T13:49:19.340Z,46.53
2023-05-23T13:50:21.653Z,46.52
2023-05-23T13:51:23.884Z,46.50
2023-05-23T13:54:11.867Z,46.52
2023-05-23T13:55:16.104Z,46.57
2023-05-23T13:56:19.424Z,46.75
2023-05-23T13:57:21.875Z,46.76
2023-05-23T13:58:24.612Z,46.92
2023-05-23T13:59:27.511Z,47.08
2023-05-23T14:00:30.134Z,47.10
2023-05-23T14:01:32.498Z,47.50
2023-05-23T14:02:34.933Z,47.71
2023-05-23T14:03:37.073Z,47.74
2023-05-23T14:04:39.280Z,47.37
2023-05-23T14:05:42.654Z,47.29
2023-05-23T14:06:45.906Z,46.84
2023-05-23T14:07:48.356Z,46.65
2023-05-23T14:08:50.629Z,46.53
2023-05-23T14:09:52.876Z,46.72
2023-05-23T14:10:55.580Z,46.66
2023-05-23T14:11:58.028Z,46.47
2023-05-23T14:13:00.390Z,46.12
2023-05-23T14:14:03.210Z,46.20
2023-05-23T14:16:15.382Z,46.25
2023-05-23T14:17:18.182Z,46.17
2023-05-23T14:18:21.158Z,46.20
2023-05-23T14:20:38.660Z,46.12
2023-05-23T14:21:41.775Z,45.62
2023-05-23T14:22:45.407Z,45.79
2023-05-23T14:23:47.671Z,45.87
2023-05-23T14:24:49.674Z,45.88
2023-05-23T14:25:52.045Z,45.42
2023-05-23T14:26:54.371Z,46.28
2023-05-23T14:27:56.537Z,46.13
2023-05-23T14:28:58.685Z,45.85
2023-05-23T14:30:02.012Z,45.86
2023-05-23T14:31:04.781Z,45.66
2023-05-23T14:32:07.577Z,45.56
2023-05-23T14:33:11.282Z,45.64
2023-05-23T14:34:13.967Z,45.30
2023-05-23T14:35:16.297Z,45.49